sensor_id;sensor_type;location;lat;lon;timestamp;pressure;altitude;pressure_sealevel;temperature;humidity
62712;BME280;48772;55.586;37.730;2023-02-18T00:00:21;99462.53;;;-9.36;100.00
62712;BME280;48772;55.586;37.730;2023-02-18T00:02:48;99379.38;;;-9.92;100.00
62712;BME280;48772;55.586;37.730;2023-02-18T00:05:14;99445.41;;;-9.47;100.00
62712;BME280;48772;55.586;37.730;2023-02-18T00:07:40;99457.41;;;-9.37;100.00
62712;BME280;48772;55.586;37.730;2023-02-18T00:10:10;99429.13;;;-9.55;100.00
62712;BME280;48772;55.586;37.730;2023-02-18T00:12:37;99459.13;;;-9.39;100.00
62712;BME280;48772;55.586;37.730;2023-02-18T00:15:03;99449.69;;;-9.46;100.00
62712;BME280;48772;55.586;37.730;2023-02-18T00:17:29;99450.59;;;-9.50;100.00
62712;BME280;48772;55.586;37.730;2023-02-18T00:19:55;99452.28;;;-9.52;100.00
62712;BME280;48772;55.586;37.730;2023-02-18T00:22:22;99430.00;;;-9.64;100.00
62712;BME280;48772;55.586;37.730;2023-02-18T00:24:48;99429.13;;;-9.64;100.00
62712;BME280;48772;55.586;37.730;2023-02-18T00:27:14;99455.72;;;-9.47;100.00
62712;BME280;48772;55.586;37.730;2023-02-18T00:29:40;99426.53;;;-9.58;100.00
62712;BME280;48772;55.586;37.730;2023-02-18T00:32:05;99437.69;;;-9.58;100.00
62712;BME280;48772;55.586;37.730;2023-02-18T00:34:31;99439.44;;;-9.57;100.00
62712;BME280;48772;55.586;37.730;2023-02-18T00:36:57;99416.25;;;-9.64;100.00
62712;BME280;48772;55.586;37.730;2023-02-18T00:39:23;99438.53;;;-9.48;100.00
62712;BME280;48772;55.586;37.730;2023-02-18T00:41:49;99427.38;;;-9.55;100.00
62712;BME280;48772;55.586;37.730;2023-02-18T00:44:14;99413.66;;;-9.58;100.00
62712;BME280;48772;55.586;37.730;2023-02-18T00:46:40;99422.25;;;-9.59;100.00
62712;BME280;48772;55.586;37.730;2023-02-18T00:49:06;99400.78;;;-9.67;100.00
62712;BME280;48772;55.586;37.730;2023-02-18T00:51:34;99339.88;;;-9.97;100.00
62712;BME280;48772;55.586;37.730;2023-02-18T00:54:00;99420.50;;;-9.54;100.00
62712;BME280;48772;55.586;37.730;2023-02-18T00:56:25;99364.78;;;-9.88;100.00
62712;BME280;48772;55.586;37.730;2023-02-18T00:58:51;99414.53;;;-9.64;100.00
62712;BME280;48772;55.586;37.730;2023-02-18T01:01:18;99412.78;;;-9.57;100.00
62712;BME280;48772;55.586;37.730;2023-02-18T01:03:44;99356.19;;;-9.95;100.00
62712;BME280;48772;55.586;37.730;2023-02-18T01:06:10;99403.34;;;-9.69;100.00
62712;BME280;48772;55.586;37.730;2023-02-18T01:08:37;99388.75;;;-9.68;100.00
62712;BME280;48772;55.586;37.730;2023-02-18T01:11:06;99323.66;;;-10.09;100.00
62712;BME280;48772;55.586;37.730;2023-02-18T01:13:33;99381.03;;;-9.73;100.00
62712;BME280;48772;55.586;37.730;2023-02-18T01:15:59;99390.50;;;-9.70;100.00
62712;BME280;48772;55.586;37.730;2023-02-18T01:18:28;99342.41;;;-9.86;100.00
62712;BME280;48772;55.586;37.730;2023-02-18T01:20:55;99357.84;;;-9.77;100.00
62712;BME280;48772;55.586;37.730;2023-02-18T01:23:21;99357.00;;;-9.78;100.00
62712;BME280;48772;55.586;37.730;2023-02-18T01:25:47;99357.81;;;-9.71;100.00
62712;BME280;48772;55.586;37.730;2023-02-18T01:28:14;99343.22;;;-9.77;100.00
62712;BME280;48772;55.586;37.730;2023-02-18T01:30:40;99343.22;;;-9.77;100.00
62712;BME280;48772;55.586;37.730;2023-02-18T01:33:07;99336.34;;;-9.78;100.00
62712;BME280;48772;55.586;37.730;2023-02-18T01:35:33;99325.22;;;-9.87;100.00
62712;BME280;48772;55.586;37.730;2023-02-18T01:37:59;99327.81;;;-9.87;100.00
62712;BME280;48772;55.586;37.730;2023-02-18T01:40:28;99330.38;;;-9.83;100.00
62712;BME280;48772;55.586;37.730;2023-02-18T01:42:54;99311.47;;;-9.91;100.00
62712;BME280;48772;55.586;37.730;2023-02-18T01:48:00;99317.50;;;-9.89;100.00
62712;BME280;48772;55.586;37.730;2023-02-18T01:50:29;99283.22;;;-10.06;100.00
62712;BME280;48772;55.586;37.730;2023-02-18T01:52:56;99325.25;;;-9.90;100.00
62712;BME280;48772;55.586;37.730;2023-02-18T01:55:22;99306.31;;;-9.89;100.00
62712;BME280;48772;55.586;37.730;2023-02-18T01:57:48;99301.22;;;-9.95;100.00
62712;BME280;48772;55.586;37.730;2023-02-18T02:00:16;99301.22;;;-10.01;100.00
62712;BME280;48772;55.586;37.730;2023-02-18T02:02:47;99312.34;;;-9.93;100.00
62712;BME280;48772;55.586;37.730;2023-02-18T02:05:14;99275.47;;;-10.04;100.00
62712;BME280;48772;55.586;37.730;2023-02-18T02:07:41;99296.06;;;-9.94;100.00
62712;BME280;48772;55.586;37.730;2023-02-18T02:10:12;99290.03;;;-9.99;100.00
62712;BME280;48772;55.586;37.730;2023-02-18T02:13:06;99270.34;;;-10.06;100.00
62712;BME280;48772;55.586;37.730;2023-02-18T02:15:37;99284.84;;;-9.88;100.00
62712;BME280;48772;55.586;37.730;2023-02-18T02:24:09;99289.06;;;-9.80;100.00
62712;BME280;48772;55.586;37.730;2023-02-18T02:29:56;99281.31;;;-9.74;100.00
62712;BME280;48772;55.586;37.730;2023-02-18T02:38:04;99260.75;;;-9.84;100.00
62712;BME280;48772;55.586;37.730;2023-02-18T02:40:56;99269.28;;;-9.73;100.00
62712;BME280;48772;55.586;37.730;2023-02-18T02:43:38;99234.09;;;-9.82;100.00
62712;BME280;48772;55.586;37.730;2023-02-18T02:46:39;99271.78;;;-9.63;100.00
62712;BME280;48772;55.586;37.730;2023-02-18T02:54:29;99204.06;;;-9.89;100.00
62712;BME280;48772;55.586;37.730;2023-02-18T02:57:42;99233.13;;;-9.67;100.00
62712;BME280;48772;55.586;37.730;2023-02-18T03:00:11;99235.69;;;-9.67;100.00
62712;BME280;48772;55.586;37.730;2023-02-18T03:06:22;99235.56;;;-9.49;100.00
62712;BME280;48772;55.586;37.730;2023-02-18T03:14:49;99213.09;;;-9.35;100.00
62712;BME280;48772;55.586;37.730;2023-02-18T03:20:24;99165.13;;;-9.59;100.00
62712;BME280;48772;55.586;37.730;2023-02-18T03:22:52;99199.31;;;-9.36;100.00
62712;BME280;48772;55.586;37.730;2023-02-18T03:25:20;99153.13;;;-9.60;100.00
62712;BME280;48772;55.586;37.730;2023-02-18T03:28:00;99139.34;;;-9.60;100.00
62712;BME280;48772;55.586;37.730;2023-02-18T03:30:34;99189.84;;;-9.34;100.00
62712;BME280;48772;55.586;37.730;2023-02-18T03:33:06;99154.69;;;-9.45;100.00
62712;BME280;48772;55.586;37.730;2023-02-18T03:35:36;99193.28;;;-9.32;100.00
62712;BME280;48772;55.586;37.730;2023-02-18T03:38:24;99182.97;;;-9.33;100.00
62712;BME280;48772;55.586;37.730;2023-02-18T03:40:52;99186.41;;;-9.33;100.00
62712;BME280;48772;55.586;37.730;2023-02-18T03:43:18;99149.59;;;-9.48;100.00
62712;BME280;48772;55.586;37.730;2023-02-18T03:45:44;99172.69;;;-9.35;100.00
62712;BME280;48772;55.586;37.730;2023-02-18T03:48:10;99163.19;;;-9.34;100.00
62712;BME280;48772;55.586;37.730;2023-02-18T03:50:36;99178.56;;;-9.22;100.00
62712;BME280;48772;55.586;37.730;2023-02-18T03:53:01;99157.97;;;-9.27;100.00
62712;BME280;48772;55.586;37.730;2023-02-18T03:55:27;99144.16;;;-9.24;100.00
62712;BME280;48772;55.586;37.730;2023-02-18T03:57:53;99133.81;;;-9.21;100.00
62712;BME280;48772;55.586;37.730;2023-02-18T04:00:19;99120.13;;;-9.26;100.00
62712;BME280;48772;55.586;37.730;2023-02-18T04:02:45;99119.25;;;-9.28;100.00
62712;BME280;48772;55.586;37.730;2023-02-18T04:05:11;99113.25;;;-9.29;100.00
62712;BME280;48772;55.586;37.730;2023-02-18T04:07:37;99132.03;;;-9.15;100.00
62712;BME280;48772;55.586;37.730;2023-02-18T04:10:04;99100.41;;;-9.32;100.00
62712;BME280;48772;55.586;37.730;2023-02-18T04:12:30;99120.88;;;-9.15;100.00
62712;BME280;48772;55.586;37.730;2023-02-18T04:14:55;99114.84;;;-9.17;100.00
62712;BME280;48772;55.586;37.730;2023-02-18T04:17:21;99119.06;;;-9.10;100.00
62712;BME280;48772;55.586;37.730;2023-02-18T04:19:47;99125.13;;;-9.11;100.00
62712;BME280;48772;55.586;37.730;2023-02-18T04:22:13;98998.53;;;-9.76;100.00
62712;BME280;48772;55.586;37.730;2023-02-18T04:24:39;99097.66;;;-9.17;100.00
62712;BME280;48772;55.586;37.730;2023-02-18T04:27:04;99113.81;;;-9.03;100.00
62712;BME280;48772;55.586;37.730;2023-02-18T04:29:30;99106.13;;;-9.07;100.00
62712;BME280;48772;55.586;37.730;2023-02-18T04:31:56;99095.84;;;-9.12;100.00
62712;BME280;48772;55.586;37.730;2023-02-18T04:34:22;99106.88;;;-8.96;100.00
62712;BME280;48772;55.586;37.730;2023-02-18T04:36:48;99074.28;;;-9.08;100.00
62712;BME280;48772;55.586;37.730;2023-02-18T04:39:14;99090.53;;;-8.98;100.00
62712;BME280;48772;55.586;37.730;2023-02-18T04:41:39;99090.50;;;-8.95;100.00
62712;BME280;48772;55.586;37.730;2023-02-18T04:44:05;99086.25;;;-8.99;100.00
62712;BME280;48772;55.586;37.730;2023-02-18T04:46:31;99072.34;;;-8.88;100.00
62712;BME280;48772;55.586;37.730;2023-02-18T04:48:57;99067.22;;;-8.92;100.00
62712;BME280;48772;55.586;37.730;2023-02-18T04:51:23;99075.69;;;-8.81;100.00
62712;BME280;48772;55.586;37.730;2023-02-18T04:53:49;99019.31;;;-9.16;100.00
62712;BME280;48772;55.586;37.730;2023-02-18T04:56:14;99035.59;;;-9.09;100.00
62712;BME280;48772;55.586;37.730;2023-02-18T04:58:50;98998.78;;;-9.25;100.00
62712;BME280;48772;55.586;37.730;2023-02-18T05:01:15;99032.00;;;-8.98;100.00
62712;BME280;48772;55.586;37.730;2023-02-18T05:03:41;99065.28;;;-8.75;100.00
62712;BME280;48772;55.586;37.730;2023-02-18T05:06:07;99070.50;;;-8.80;100.00
62712;BME280;48772;55.586;37.730;2023-02-18T05:08:32;99062.72;;;-8.75;100.00
62712;BME280;48772;55.586;37.730;2023-02-18T05:10:58;99019.91;;;-8.94;100.00
62712;BME280;48772;55.586;37.730;2023-02-18T05:13:24;99049.81;;;-8.78;100.00
62712;BME280;48772;55.586;37.730;2023-02-18T05:15:51;99067.69;;;-8.63;100.00
62712;BME280;48772;55.586;37.730;2023-02-18T05:18:16;99084.09;;;-8.64;100.00
62712;BME280;48772;55.586;37.730;2023-02-18T05:20:42;99072.06;;;-8.68;100.00
62712;BME280;48772;55.586;37.730;2023-02-18T05:23:08;99047.91;;;-8.64;100.00
62712;BME280;48772;55.586;37.730;2023-02-18T05:25:34;99037.63;;;-8.69;100.00
62712;BME280;48772;55.586;37.730;2023-02-18T05:28:00;99026.41;;;-8.68;100.00
62712;BME280;48772;55.586;37.730;2023-02-18T05:30:25;99034.13;;;-8.65;100.00
62712;BME280;48772;55.586;37.730;2023-02-18T05:32:51;99031.50;;;-8.60;100.00
62712;BME280;48772;55.586;37.730;2023-02-18T05:35:18;99029.72;;;-8.58;100.00
62712;BME280;48772;55.586;37.730;2023-02-18T05:37:44;99028.06;;;-8.64;100.00
62712;BME280;48772;55.586;37.730;2023-02-18T05:40:10;99032.25;;;-8.54;100.00
62712;BME280;48772;55.586;37.730;2023-02-18T05:42:38;99025.47;;;-8.61;100.00
62712;BME280;48772;55.586;37.730;2023-02-18T05:45:04;99018.50;;;-8.57;100.00
62712;BME280;48772;55.586;37.730;2023-02-18T05:47:30;99020.13;;;-8.50;100.00
62712;BME280;48772;55.586;37.730;2023-02-18T05:49:56;98997.81;;;-8.56;100.00
62712;BME280;48772;55.586;37.730;2023-02-18T05:52:21;98977.28;;;-8.63;100.00
62712;BME280;48772;55.586;37.730;2023-02-18T05:54:47;98983.81;;;-8.41;100.00
62712;BME280;48772;55.586;37.730;2023-02-18T05:57:14;98996.69;;;-8.38;100.00
62712;BME280;48772;55.586;37.730;2023-02-18T05:59:40;98979.66;;;-8.51;100.00
62712;BME280;48772;55.586;37.730;2023-02-18T06:02:06;98965.81;;;-8.47;100.00
62712;BME280;48772;55.586;37.730;2023-02-18T06:04:31;98971.81;;;-8.44;100.00
62712;BME280;48772;55.586;37.730;2023-02-18T06:06:57;98981.09;;;-8.34;100.00
62712;BME280;48772;55.586;37.730;2023-02-18T06:09:23;98974.13;;;-8.27;100.00
62712;BME280;48772;55.586;37.730;2023-02-18T06:11:49;98965.44;;;-8.23;100.00
62712;BME280;48772;55.586;37.730;2023-02-18T06:14:15;98961.88;;;-8.19;100.00
62712;BME280;48772;55.586;37.730;2023-02-18T06:16:41;98961.75;;;-8.13;100.00
62712;BME280;48772;55.586;37.730;2023-02-18T06:19:06;98951.63;;;-8.22;100.00
62712;BME280;48772;55.586;37.730;2023-02-18T06:21:32;98959.09;;;-8.09;100.00
62712;BME280;48772;55.586;37.730;2023-02-18T06:23:58;98959.72;;;-7.96;100.00
62712;BME280;48772;55.586;37.730;2023-02-18T06:26:24;98951.03;;;-7.92;100.00
62712;BME280;48772;55.586;37.730;2023-02-18T06:28:50;98951.56;;;-7.74;100.00
62712;BME280;48772;55.586;37.730;2023-02-18T06:31:16;98911.47;;;-7.97;100.00
62712;BME280;48772;55.586;37.730;2023-02-18T06:33:42;98949.63;;;-7.64;100.00
62712;BME280;48772;55.586;37.730;2023-02-18T06:36:09;98938.03;;;-7.45;100.00
62712;BME280;48772;55.586;37.730;2023-02-18T06:38:37;98942.28;;;-7.43;100.00
62712;BME280;48772;55.586;37.730;2023-02-18T06:41:03;98932.41;;;-7.24;100.00
62712;BME280;48772;55.586;37.730;2023-02-18T06:43:29;98917.66;;;-7.21;100.00
62712;BME280;48772;55.586;37.730;2023-02-18T06:45:55;98924.31;;;-7.09;100.00
62712;BME280;48772;55.586;37.730;2023-02-18T06:48:22;98915.91;;;-7.19;100.00
62712;BME280;48772;55.586;37.730;2023-02-18T06:50:48;98874.38;;;-7.14;100.00
62712;BME280;48772;55.586;37.730;2023-02-18T06:53:14;98905.53;;;-7.19;100.00
62712;BME280;48772;55.586;37.730;2023-02-18T06:55:42;98906.19;;;-7.09;100.00
62712;BME280;48772;55.586;37.730;2023-02-18T06:58:09;98878.69;;;-7.15;100.00
62712;BME280;48772;55.586;37.730;2023-02-18T07:00:35;98903.38;;;-7.00;100.00
62712;BME280;48772;55.586;37.730;2023-02-18T07:03:01;98890.13;;;-6.86;100.00
62712;BME280;48772;55.586;37.730;2023-02-18T07:05:27;98860.63;;;-6.81;100.00
62712;BME280;48772;55.586;37.730;2023-02-18T07:07:53;98887.34;;;-6.79;100.00
62712;BME280;48772;55.586;37.730;2023-02-18T07:10:19;98880.53;;;-6.83;100.00
62712;BME280;48772;55.586;37.730;2023-02-18T07:12:45;98857.78;;;-7.07;100.00
62712;BME280;48772;55.586;37.730;2023-02-18T07:15:11;98847.00;;;-6.89;100.00
62712;BME280;48772;55.586;37.730;2023-02-18T07:17:37;98838.25;;;-6.85;100.00
62712;BME280;48772;55.586;37.730;2023-02-18T07:20:03;98875.84;;;-6.67;100.00
62712;BME280;48772;55.586;37.730;2023-02-18T07:22:29;98839.84;;;-6.79;100.00
62712;BME280;48772;55.586;37.730;2023-02-18T07:24:55;98840.28;;;-6.62;100.00
62712;BME280;48772;55.586;37.730;2023-02-18T07:27:21;98848.41;;;-6.41;100.00
62712;BME280;48772;55.586;37.730;2023-02-18T07:29:48;98819.94;;;-6.44;100.00
62712;BME280;48772;55.586;37.730;2023-02-18T07:32:16;98826.13;;;-6.49;100.00
62712;BME280;48772;55.586;37.730;2023-02-18T07:34:42;98835.56;;;-6.47;100.00
62712;BME280;48772;55.586;37.730;2023-02-18T07:37:07;98797.66;;;-6.84;100.00
62712;BME280;48772;55.586;37.730;2023-02-18T07:39:35;98812.19;;;-6.79;100.00
62712;BME280;48772;55.586;37.730;2023-02-18T07:42:03;98817.75;;;-6.94;100.00
62712;BME280;48772;55.586;37.730;2023-02-18T07:44:31;98815.19;;;-6.94;100.00
62712;BME280;48772;55.586;37.730;2023-02-18T07:46:57;98802.69;;;-6.78;100.00
62712;BME280;48772;55.586;37.730;2023-02-18T07:49:24;98810.25;;;-6.71;100.00
62712;BME280;48772;55.586;37.730;2023-02-18T07:51:50;98794.66;;;-6.68;100.00
62712;BME280;48772;55.586;37.730;2023-02-18T07:54:16;98801.97;;;-6.85;100.00
62712;BME280;48772;55.586;37.730;2023-02-18T07:56:43;98806.94;;;-6.76;100.00
62712;BME280;48772;55.586;37.730;2023-02-18T07:59:10;98806.66;;;-6.65;100.00
62712;BME280;48772;55.586;37.730;2023-02-18T08:01:55;98793.13;;;-6.76;100.00
62712;BME280;48772;55.586;37.730;2023-02-18T08:04:44;98731.81;;;-7.10;100.00
62712;BME280;48772;55.586;37.730;2023-02-18T08:07:15;98763.69;;;-6.74;100.00
62712;BME280;48772;55.586;37.730;2023-02-18T08:09:41;98760.94;;;-6.68;100.00
62712;BME280;48772;55.586;37.730;2023-02-18T08:12:08;98728.19;;;-6.70;100.00
62712;BME280;48772;55.586;37.730;2023-02-18T08:14:33;98758.50;;;-6.42;100.00
62712;BME280;48772;55.586;37.730;2023-02-18T08:16:59;98768.06;;;-6.42;100.00
62712;BME280;48772;55.586;37.730;2023-02-18T08:19:25;98759.91;;;-6.29;100.00
62712;BME280;48772;55.586;37.730;2023-02-18T08:21:51;98729.19;;;-6.44;100.00
62712;BME280;48772;55.586;37.730;2023-02-18T08:24:17;98752.66;;;-6.18;100.00
62712;BME280;48772;55.586;37.730;2023-02-18T08:26:43;98768.47;;;-6.27;100.00
62712;BME280;48772;55.586;37.730;2023-02-18T08:29:09;98773.38;;;-6.16;100.00
62712;BME280;48772;55.586;37.730;2023-02-18T08:31:35;98731.53;;;-6.35;100.00
62712;BME280;48772;55.586;37.730;2023-02-18T08:34:00;98724.25;;;-6.22;100.00
62712;BME280;48772;55.586;37.730;2023-02-18T08:36:28;98728.41;;;-5.88;100.00
62712;BME280;48772;55.586;37.730;2023-02-18T08:38:55;98708.81;;;-5.98;100.00
62712;BME280;48772;55.586;37.730;2023-02-18T08:41:21;98745.63;;;-5.85;100.00
62712;BME280;48772;55.586;37.730;2023-02-18T08:43:47;98699.88;;;-5.88;100.00
62712;BME280;48772;55.586;37.730;2023-02-18T08:46:14;98683.59;;;-5.93;100.00
62712;BME280;48772;55.586;37.730;2023-02-18T08:48:40;98699.38;;;-5.73;100.00
62712;BME280;48772;55.586;37.730;2023-02-18T08:51:20;98692.22;;;-5.66;100.00
62712;BME280;48772;55.586;37.730;2023-02-18T08:53:47;98693.31;;;-5.46;100.00
62712;BME280;48772;55.586;37.730;2023-02-18T08:56:14;98684.03;;;-5.27;100.00
62712;BME280;48772;55.586;37.730;2023-02-18T08:58:40;98673.47;;;-5.22;100.00
62712;BME280;48772;55.586;37.730;2023-02-18T09:01:09;98670.53;;;-5.12;100.00
62712;BME280;48772;55.586;37.730;2023-02-18T09:03:35;98657.91;;;-5.22;100.00
62712;BME280;48772;55.586;37.730;2023-02-18T09:06:01;98684.34;;;-4.85;100.00
62712;BME280;48772;55.586;37.730;2023-02-18T09:08:28;98671.44;;;-4.64;100.00
62712;BME280;48772;55.586;37.730;2023-02-18T09:10:58;98653.88;;;-4.82;100.00
62712;BME280;48772;55.586;37.730;2023-02-18T09:13:26;98644.13;;;-4.75;100.00
62712;BME280;48772;55.586;37.730;2023-02-18T09:16:09;98648.44;;;-4.74;100.00
62712;BME280;48772;55.586;37.730;2023-02-18T09:18:35;98660.19;;;-4.64;100.00
62712;BME280;48772;55.586;37.730;2023-02-18T09:21:04;98618.03;;;-4.97;100.00
62712;BME280;48772;55.586;37.730;2023-02-18T09:23:31;98648.69;;;-4.82;100.00
62712;BME280;48772;55.586;37.730;2023-02-18T09:25:57;98648.94;;;-4.89;100.00
62712;BME280;48772;55.586;37.730;2023-02-18T09:28:24;98656.44;;;-4.80;100.00
62712;BME280;48772;55.586;37.730;2023-02-18T09:30:51;98630.47;;;-5.05;100.00
62712;BME280;48772;55.586;37.730;2023-02-18T09:33:17;98631.72;;;-4.92;100.00
62712;BME280;48772;55.586;37.730;2023-02-18T09:35:44;98619.94;;;-4.77;100.00
62712;BME280;48772;55.586;37.730;2023-02-18T09:38:12;98601.47;;;-3.59;100.00
62712;BME280;48772;55.586;37.730;2023-02-18T09:40:43;98604.16;;;-3.20;100.00
62712;BME280;48772;55.586;37.730;2023-02-18T09:45:52;98591.13;;;-3.20;100.00
62712;BME280;48772;55.586;37.730;2023-02-18T09:48:21;98578.34;;;-3.26;100.00
62712;BME280;48772;55.586;37.730;2023-02-18T09:50:51;98579.41;;;-3.30;100.00
62712;BME280;48772;55.586;37.730;2023-02-18T09:53:18;98583.38;;;-3.42;100.00
62712;BME280;48772;55.586;37.730;2023-02-18T09:55:44;98547.47;;;-3.56;100.00
62712;BME280;48772;55.586;37.730;2023-02-18T09:58:20;98579.00;;;-3.01;100.00
62712;BME280;48772;55.586;37.730;2023-02-18T10:01:02;98561.69;;;-1.56;100.00
62712;BME280;48772;55.586;37.730;2023-02-18T10:03:29;98514.06;;;-1.61;100.00
62712;BME280;48772;55.586;37.730;2023-02-18T10:05:58;98546.59;;;-1.49;100.00
62712;BME280;48772;55.586;37.730;2023-02-18T10:08:41;98537.13;;;-1.87;100.00
62712;BME280;48772;55.586;37.730;2023-02-18T10:11:31;98554.19;;;-2.16;100.00
62712;BME280;48772;55.586;37.730;2023-02-18T10:13:58;98516.81;;;-1.81;100.00
62712;BME280;48772;55.586;37.730;2023-02-18T10:16:26;98469.34;;;-2.24;100.00
62712;BME280;48772;55.586;37.730;2023-02-18T10:18:58;98492.09;;;-1.74;100.00
62712;BME280;48772;55.586;37.730;2023-02-18T10:21:28;98514.81;;;-0.92;100.00
62712;BME280;48772;55.586;37.730;2023-02-18T10:26:29;98528.25;;;-1.32;100.00
62712;BME280;48772;55.586;37.730;2023-02-18T10:28:57;98495.53;;;-1.56;100.00
62712;BME280;48772;55.586;37.730;2023-02-18T10:31:35;98496.88;;;-1.83;100.00
62712;BME280;48772;55.586;37.730;2023-02-18T10:36:44;98497.06;;;-2.96;100.00
62712;BME280;48772;55.586;37.730;2023-02-18T10:42:00;98505.38;;;-3.06;100.00
62712;BME280;48772;55.586;37.730;2023-02-18T10:47:33;98483.03;;;-2.93;100.00
62712;BME280;48772;55.586;37.730;2023-02-18T10:50:04;98499.84;;;-3.19;100.00
62712;BME280;48772;55.586;37.730;2023-02-18T10:52:37;98480.63;;;-3.16;100.00
62712;BME280;48772;55.586;37.730;2023-02-18T10:55:11;98471.41;;;-2.86;100.00
62712;BME280;48772;55.586;37.730;2023-02-18T10:57:46;98470.38;;;-1.93;100.00
62712;BME280;48772;55.586;37.730;2023-02-18T11:02:45;98439.75;;;-0.59;100.00
62712;BME280;48772;55.586;37.730;2023-02-18T11:05:27;98470.50;;;-0.47;100.00
62712;BME280;48772;55.586;37.730;2023-02-18T11:07:57;98460.53;;;-1.37;100.00
62712;BME280;48772;55.586;37.730;2023-02-18T11:10:25;98456.03;;;-1.84;100.00
62712;BME280;48772;55.586;37.730;2023-02-18T11:13:00;98437.09;;;-2.59;100.00
62712;BME280;48772;55.586;37.730;2023-02-18T11:15:28;98401.97;;;-2.52;100.00
62712;BME280;48772;55.586;37.730;2023-02-18T11:18:12;98420.06;;;-1.96;100.00
62712;BME280;48772;55.586;37.730;2023-02-18T11:20:38;98422.22;;;-1.87;100.00
62712;BME280;48772;55.586;37.730;2023-02-18T11:25:35;98431.06;;;-1.90;100.00
62712;BME280;48772;55.586;37.730;2023-02-18T11:28:03;98406.94;;;-2.12;100.00
62712;BME280;48772;55.586;37.730;2023-02-18T11:30:41;98380.06;;;-2.66;100.00
62712;BME280;48772;55.586;37.730;2023-02-18T11:33:15;98392.16;;;-3.01;100.00
62712;BME280;48772;55.586;37.730;2023-02-18T11:35:57;98431.03;;;-2.78;100.00
62712;BME280;48772;55.586;37.730;2023-02-18T11:38:40;98426.25;;;-3.05;100.00
62712;BME280;48772;55.586;37.730;2023-02-18T11:41:11;98421.16;;;-3.08;100.00
62712;BME280;48772;55.586;37.730;2023-02-18T11:43:44;98432.03;;;-2.80;100.00
62712;BME280;48772;55.586;37.730;2023-02-18T11:46:19;98422.81;;;-2.87;100.00
62712;BME280;48772;55.586;37.730;2023-02-18T11:48:50;98400.75;;;-2.80;100.00
62712;BME280;48772;55.586;37.730;2023-02-18T11:57:53;98385.28;;;-3.59;100.00
62712;BME280;48772;55.586;37.730;2023-02-18T12:02:59;98332.94;;;-4.12;100.00
62712;BME280;48772;55.586;37.730;2023-02-18T12:05:28;98380.94;;;-3.79;100.00
62712;BME280;48772;55.586;37.730;2023-02-18T12:10:44;98368.41;;;-3.51;100.00
62712;BME280;48772;55.586;37.730;2023-02-18T12:13:18;98397.19;;;-3.54;100.00
62712;BME280;48772;55.586;37.730;2023-02-18T12:15:54;98315.84;;;-3.79;100.00
62712;BME280;48772;55.586;37.730;2023-02-18T12:21:34;98376.28;;;-2.25;100.00
62712;BME280;48772;55.586;37.730;2023-02-18T12:35:18;98363.81;;;-3.08;100.00
62712;BME280;48772;55.586;37.730;2023-02-18T12:41:03;98341.16;;;-3.43;100.00
62712;BME280;48772;55.586;37.730;2023-02-18T12:49:04;98328.84;;;-3.79;100.00
62712;BME280;48772;55.586;37.730;2023-02-18T12:51:41;98354.34;;;-3.67;100.00
62712;BME280;48772;55.586;37.730;2023-02-18T12:57:27;98351.00;;;-3.89;100.00
62712;BME280;48772;55.586;37.730;2023-02-18T13:05:31;98264.13;;;-4.45;100.00
62712;BME280;48772;55.586;37.730;2023-02-18T13:13:41;98315.50;;;-4.30;100.00
62712;BME280;48772;55.586;37.730;2023-02-18T13:16:15;98313.56;;;-4.25;100.00
62712;BME280;48772;55.586;37.730;2023-02-18T13:21:26;98242.69;;;-4.70;100.00
62712;BME280;48772;55.586;37.730;2023-02-18T13:23:57;98309.31;;;-4.27;100.00
62712;BME280;48772;55.586;37.730;2023-02-18T13:26:25;98300.78;;;-4.51;100.00
62712;BME280;48772;55.586;37.730;2023-02-18T13:29:15;98300.53;;;-4.45;100.00
62712;BME280;48772;55.586;37.730;2023-02-18T13:31:55;98293.59;;;-4.44;100.00
62712;BME280;48772;55.586;37.730;2023-02-18T13:37:17;98281.03;;;-4.55;100.00
62712;BME280;48772;55.586;37.730;2023-02-18T13:39:55;98259.13;;;-4.69;100.00
62712;BME280;48772;55.586;37.730;2023-02-18T13:47:43;98277.22;;;-4.66;100.00
62712;BME280;48772;55.586;37.730;2023-02-18T13:50:26;98201.81;;;-5.06;100.00
62712;BME280;48772;55.586;37.730;2023-02-18T13:53:13;98258.28;;;-4.70;100.00
62712;BME280;48772;55.586;37.730;2023-02-18T13:55:59;98235.34;;;-4.80;100.00
62712;BME280;48772;55.586;37.730;2023-02-18T13:58:36;98258.28;;;-4.70;100.00
62712;BME280;48772;55.586;37.730;2023-02-18T14:03:56;98265.97;;;-4.67;100.00
62712;BME280;48772;55.586;37.730;2023-02-18T14:06:34;98222.66;;;-4.88;100.00
62712;BME280;48772;55.586;37.730;2023-02-18T14:11:56;98263.28;;;-4.85;100.00
62712;BME280;48772;55.586;37.730;2023-02-18T14:20:21;98236.16;;;-5.00;100.00
62712;BME280;48772;55.586;37.730;2023-02-18T14:22:46;98257.81;;;-4.99;100.00
62712;BME280;48772;55.586;37.730;2023-02-18T14:27:39;98255.50;;;-5.07;100.00
62712;BME280;48772;55.586;37.730;2023-02-18T14:30:33;98249.53;;;-5.09;100.00
62712;BME280;48772;55.586;37.730;2023-02-18T14:33:01;98229.13;;;-5.18;100.00
62712;BME280;48772;55.586;37.730;2023-02-18T14:35:59;98232.41;;;-5.13;100.00
62712;BME280;48772;55.586;37.730;2023-02-18T14:49:31;98140.31;;;-5.89;100.00
62712;BME280;48772;55.586;37.730;2023-02-18T14:52:02;98218.06;;;-5.44;100.00
62712;BME280;48772;55.586;37.730;2023-02-18T14:54:29;98234.28;;;-5.38;100.00
62712;BME280;48772;55.586;37.730;2023-02-18T14:57:16;98209.06;;;-5.36;100.00
62712;BME280;48772;55.586;37.730;2023-02-18T14:59:45;98221.34;;;-5.39;100.00
62712;BME280;48772;55.586;37.730;2023-02-18T15:02:22;98210.91;;;-5.38;100.00
62712;BME280;48772;55.586;37.730;2023-02-18T15:04:48;98227.31;;;-5.37;100.00
62712;BME280;48772;55.586;37.730;2023-02-18T15:07:18;98207.41;;;-5.37;100.00
62712;BME280;48772;55.586;37.730;2023-02-18T15:09:52;98144.88;;;-5.74;100.00